Deming Municipal Airport
KDMN : now visible

Airfield :











YOU CAN JOIN US ON...

 
LOGIN :

Register | Disclaimer

   EN    FR    IT 

 









Legend :    VFR   Marginal VFR   IFR   Intensive IFR   Very Intensive IFR
Visi :
Ceiling :
>= 8 km
>= 3000ft
5 to 8 km
1000 to 3000 ft
1500m to 5 km
500 to 1000 ft
800 to 1500m
200 to 500 ft
< 800m
< 200 ft
Symbols :   Thunderstorms  Fog  Heavy snow  Heavy precipitations  Wind > 20 kt







- Airport Elevation : 4314 ft


KDMN - Deming Municipal

CURRENT METAR :
  • 201553Z AUTO 24006KT 10SM CLR 24/12 A3005 RMK AO2 SLP106 T02390122 TSNO

EXPIRED METARs :
  • 201453Z AUTO 26004KT 10SM CLR 21/13 A3003 RMK AO2 SLP103 T02060133 51015 TSNO

TAF KDMN
Valid from the 20 at 12:00 until the 21 at 12:00 UTC


201141Z 2012/2112 26005KT P6SM FEW250
FM202000 26012G18KT P6SM SCT080
FM210200 28008KT P6SM FEW250
No reported NOTAMs for that airfield.



MET'MAP, your aeronautical weather chart ! - Copyright ORBIFLY December 2007 - Disclaimer

ORBIFLY MET'MAP TEAM :

Programming & Development : Alexandra Zaïnal
Concept & Development : Baudouin d'Aumeries
Co-Development & Prog : Marc-Olivier Méhu
Technical & hardware support : Manuel Goepfert

Contact : metmap@orbifly.com




SOURCES & CREDITS :

   NOAA       Earth
Advisory